KONO

Details ICAO KONO
Name Ontario Muni
Region United States
Timezone America/Boise (UTC-6.0)
Plans Departing 5
Arriving 6
Stats Elevation 2,193 ft / 668 m (AMSL)
Location 44.020231° -117.013492°
Runways 1
Magnetic Variation 13.628° E
Sunrise 2018-05-22 12:16:26 UTC / 2018-05-22 06:16:26 Local
Sunset 2018-05-23 03:15:54 UTC / 2018-05-22 21:15:54 Local
Advertisement - Login to hide

Runways

ID Width Length Bearing (true) Bearing (mag) Surface Threshold Offset Overrun Length
14 100 ft / 30 m 4,310 ft / 1,314 m 158.65° 145.02° Asphalt 220 ft / 67 m 0 ft / 0 m
32 100 ft / 30 m 4,310 ft / 1,314 m 338.66° 325.03° Asphalt 0 ft / 0 m 0 ft / 0 m

Map

Weather


0- 5 10 15 20 25 30 35+ Temperature / ° C

Clouds and Precipitation
Forecast for 2018-05-22 12:00 UTC. Updated an hour ago

Ground ~20,000 ft ~40,000 ft Winds

METAR

KONO 220953Z AUTO 00000KT 10SM CLR 16/11 A2988 RMK AO2 SLP105 T01610106

TAF

Not found

Frequencies

Recorded 135.27 MHz ASOS
Unicom 122.80 MHz CTAF/UNICOM
Warning: Do not use this data for real-world aviation or navigation. No guarantee of current accuracy is given.